Time;durP1;ratioP1;P1;durP2;ratioP2;P2;SDS_P1;SDS_P2;PMS_P1;PMS_P2;Temp;Humidity;BMP_temperature;BMP_pressure;BME280_temperature;BME280_humidity;BME280_pressure;Samples;Min_cycle;Max_cycle;Signal;HPM_P1;HPM_P2
2023/06/15 00:01:47;;;;;;;5.78;3.45;;;;;;;16.83;59.91;101234.63;5037311;28;20038;-64
2023/06/15 00:04:12;;;;;;;4.35;3.30;;;;;;;16.78;60.54;101242.59;5039507;28;20051;-64
2023/06/15 00:06:38;;;;;;;3.97;3.08;;;;;;;16.73;60.77;101247.06;5041910;28;20103;-64
2023/06/15 00:09:03;;;;;;;5.32;3.38;;;;;;;16.67;60.91;101249.84;5039648;28;20028;-64
2023/06/15 00:11:28;;;;;;;4.20;3.40;;;;;;;16.64;61.48;101254.25;5041076;28;20749;-64
2023/06/15 00:13:54;;;;;;;3.83;2.92;;;;;;;16.61;61.04;101256.94;5040243;28;20138;-65
2023/06/15 00:16:19;;;;;;;4.55;3.17;;;;;;;16.59;61.52;101263.97;5039753;28;20191;-64
2023/06/15 00:18:48;;;;;;;4.88;2.92;;;;;;;16.55;61.70;101260.56;5039986;28;20040;-64
2023/06/15 00:21:17;;;;;;;3.92;3.22;;;;;;;16.54;62.04;101258.84;5041201;28;20029;-64
2023/06/15 00:23:44;;;;;;;5.38;3.90;;;;;;;16.52;62.26;101260.66;5041231;28;20497;-64
2023/06/15 00:26:11;;;;;;;3.47;3.08;;;;;;;16.50;61.91;101264.19;5038525;28;20437;-63
2023/06/15 00:28:36;;;;;;;6.50;3.40;;;;;;;16.47;62.23;101267.75;5035787;28;20472;-63
2023/06/15 00:31:01;;;;;;;3.35;2.80;;;;;;;16.45;62.75;101269.50;5037522;28;20045;-63
2023/06/15 00:33:27;;;;;;;3.63;2.80;;;;;;;16.41;62.57;101270.50;5036363;28;20494;-63
2023/06/15 00:35:52;;;;;;;4.95;2.50;;;;;;;16.38;62.37;101265.34;5041929;28;20037;-63
2023/06/15 00:38:18;;;;;;;4.70;2.97;;;;;;;16.36;62.55;101261.03;5041591;28;20510;-64
2023/06/15 00:40:43;;;;;;;4.80;3.28;;;;;;;16.32;62.40;101268.94;5041416;28;20664;-63
2023/06/15 00:43:08;;;;;;;4.65;3.30;;;;;;;16.28;62.11;101261.25;5037191;28;20037;-65
2023/06/15 00:45:34;;;;;;;4.78;3.35;;;;;;;16.26;62.56;101276.09;5034650;28;20048;-66
2023/06/15 00:48:00;;;;;;;3.78;3.15;;;;;;;16.24;62.48;101272.63;5036945;28;20104;-65
2023/06/15 00:50:29;;;;;;;4.90;3.55;;;;;;;16.19;62.32;101275.38;5035587;28;20033;-66
2023/06/15 00:52:55;;;;;;;5.50;3.45;;;;;;;16.15;62.72;101280.66;5022695;28;20857;-65
2023/06/15 00:55:20;;;;;;;4.78;3.05;;;;;;;16.14;62.70;101285.06;5032931;28;20044;-65
2023/06/15 00:57:49;;;;;;;3.50;3.20;;;;;;;16.09;63.05;101280.81;5035330;28;20087;-64
2023/06/15 01:00:15;;;;;;;8.10;3.75;;;;;;;16.06;63.63;101291.31;5040916;28;20839;-64
2023/06/15 01:02:41;;;;;;;5.45;4.15;;;;;;;16.04;64.66;101298.31;5034394;28;20104;-63
2023/06/15 01:05:12;;;;;;;7.45;3.97;;;;;;;15.99;64.55;101298.44;5038969;28;20076;-66
2023/06/15 01:07:40;;;;;;;4.30;3.78;;;;;;;15.94;64.60;101291.59;5022001;28;20445;-66
2023/06/15 01:10:11;;;;;;;4.60;3.30;;;;;;;15.88;64.96;101294.34;5036523;28;20226;-66
2023/06/15 01:12:41;;;;;;;5.38;3.60;;;;;;;15.85;64.80;101284.00;5039067;28;20934;-64
2023/06/15 01:15:08;;;;;;;4.63;3.70;;;;;;;15.86;64.74;101283.94;5041305;28;20037;-64
2023/06/15 01:17:34;;;;;;;8.10;3.80;;;;;;;15.84;64.54;101279.66;5041581;28;20185;-64
2023/06/15 01:20:07;;;;;;;5.90;3.55;;;;;;;15.81;64.37;101277.13;5039294;28;20482;-64
2023/06/15 01:22:55;;;;;;;4.72;3.22;;;;;;;15.75;64.58;101275.50;5040184;28;20045;-64
2023/06/15 01:25:39;;;;;;;6.97;3.40;;;;;;;15.66;64.55;101286.13;5038081;28;20486;-64
2023/06/15 01:28:06;;;;;;;4.88;3.00;;;;;;;15.59;65.10;101279.28;5037556;28;20262;-64
2023/06/15 01:30:36;;;;;;;5.43;3.63;;;;;;;15.55;65.14;101291.50;5040201;28;20049;-64
2023/06/15 01:33:01;;;;;;;5.43;3.45;;;;;;;15.50;64.91;101277.72;5022685;28;20831;-64
2023/06/15 01:35:26;;;;;;;5.82;3.50;;;;;;;15.47;65.07;101276.91;5040066;28;20165;-64
2023/06/15 01:37:52;;;;;;;4.40;3.85;;;;;;;15.47;65.18;101289.94;5038524;28;20041;-64
2023/06/15 01:40:18;;;;;;;6.57;4.35;;;;;;;15.43;66.21;101301.34;5042527;28;20087;-63
2023/06/15 01:42:45;;;;;;;5.35;3.65;;;;;;;15.40;65.99;101293.56;5043193;28;20036;-64
2023/06/15 01:45:11;;;;;;;4.88;4.00;;;;;;;15.36;66.44;101291.91;5040042;28;20129;-64
2023/06/15 01:47:39;;;;;;;4.10;3.30;;;;;;;15.32;66.61;101288.50;5039047;28;20768;-64
2023/06/15 01:50:07;;;;;;;7.38;3.72;;;;;;;15.34;65.92;101288.47;5038745;28;20045;-65
2023/06/15 01:52:32;;;;;;;5.15;3.05;;;;;;;15.31;66.34;101281.59;5038291;28;20132;-64
2023/06/15 01:54:58;;;;;;;4.38;3.40;;;;;;;15.27;66.16;101282.53;5044599;28;20133;-64
2023/06/15 01:57:23;;;;;;;3.90;3.13;;;;;;;15.26;66.05;101278.19;5044398;28;20032;-63
2023/06/15 01:59:48;;;;;;;5.97;3.78;;;;;;;15.25;66.24;101284.31;5052421;28;20029;-63
2023/06/15 02:02:14;;;;;;;4.03;3.50;;;;;;;15.25;66.52;101279.09;5045609;28;20043;-64
2023/06/15 02:04:39;;;;;;;6.13;3.20;;;;;;;15.22;66.36;101284.38;5044762;28;20498;-64
2023/06/15 02:07:05;;;;;;;5.53;4.05;;;;;;;15.17;66.62;101287.06;5026368;28;20075;-64
2023/06/15 02:09:30;;;;;;;5.03;3.50;;;;;;;15.14;66.53;101288.84;5043020;28;20052;-64
2023/06/15 02:11:57;;;;;;;3.65;3.28;;;;;;;15.08;66.91;101288.97;5038456;28;20837;-66
2023/06/15 02:14:23;;;;;;;4.63;3.00;;;;;;;15.02;67.72;101295.13;5036269;28;20045;-66
2023/06/15 02:16:49;;;;;;;3.28;2.95;;;;;;;14.96;67.54;101291.81;5024926;28;20041;-66
2023/06/15 02:19:20;;;;;;;4.47;3.33;;;;;;;14.90;68.08;101300.56;5035749;28;20817;-65
2023/06/15 02:21:46;;;;;;;3.80;3.40;;;;;;;14.85;68.17;101297.19;5035722;28;20037;-66
2023/06/15 02:24:11;;;;;;;5.05;3.30;;;;;;;14.84;68.32;101299.84;5037480;28;20040;-65
2023/06/15 02:26:40;;;;;;;5.20;3.40;;;;;;;14.82;68.56;101301.59;5041084;28;20110;-66
2023/06/15 02:29:05;;;;;;;5.90;3.50;;;;;;;14.79;68.91;101304.25;5039764;28;20041;-65
2023/06/15 02:31:30;;;;;;;3.72;3.33;;;;;;;14.75;69.08;101303.44;5037054;28;20495;-66
2023/06/15 02:33:56;;;;;;;3.33;3.03;;;;;;;14.74;69.17;101304.34;5035129;28;20748;-65
2023/06/15 02:36:22;;;;;;;4.22;3.42;;;;;;;14.72;69.42;101300.91;5037381;28;20119;-65
2023/06/15 02:38:48;;;;;;;4.35;3.25;;;;;;;14.72;69.24;101305.25;5028832;28;20032;-65
2023/06/15 02:41:14;;;;;;;4.15;3.00;;;;;;;14.73;69.16;101309.53;5038838;28;20061;-65
2023/06/15 02:43:39;;;;;;;3.78;3.40;;;;;;;14.73;68.74;101302.59;5023196;28;20632;-66
2023/06/15 02:46:05;;;;;;;6.22;3.97;;;;;;;14.74;69.13;101300.88;5037784;28;20150;-65
2023/06/15 02:48:30;;;;;;;4.57;3.50;;;;;;;14.72;68.86;101298.31;5039491;28;20049;-66
2023/06/15 02:50:56;;;;;;;5.97;3.33;;;;;;;14.69;69.34;101298.34;5038752;28;20505;-65
2023/06/15 02:53:22;;;;;;;6.47;3.83;;;;;;;14.65;69.37;101307.09;5039330;28;20045;-65
2023/06/15 02:55:47;;;;;;;6.10;3.35;;;;;;;14.62;69.81;101307.13;5037003;28;20044;-66
2023/06/15 02:58:13;;;;;;;6.10;3.30;;;;;;;14.57;69.80;101304.59;5034848;28;20731;-65
2023/06/15 03:00:40;;;;;;;4.40;3.13;;;;;;;14.54;70.62;101309.00;5035107;28;20069;-65
2023/06/15 03:03:07;;;;;;;6.82;3.53;;;;;;;14.50;70.78;101309.94;5019326;28;20041;-65
2023/06/15 03:05:33;;;;;;;5.22;3.38;;;;;;;14.45;71.07;101299.63;5037167;28;20039;-65
2023/06/15 03:07:58;;;;;;;6.63;3.55;;;;;;;14.42;71.24;101299.66;5035418;28;20041;-65
2023/06/15 03:10:24;;;;;;;6.30;3.70;;;;;;;14.39;71.71;101302.31;5033199;28;20336;-66
2023/06/15 03:12:49;;;;;;;5.82;3.75;;;;;;;14.38;72.02;101307.50;5033384;28;22064;-65
2023/06/15 03:15:16;;;;;;;4.50;3.22;;;;;;;14.34;72.03;101305.78;5031102;28;20128;-65
2023/06/15 03:17:42;;;;;;;4.15;3.30;;;;;;;14.30;72.14;101301.53;5033598;28;20025;-66
2023/06/15 03:20:10;;;;;;;3.63;3.20;;;;;;;14.31;72.05;101303.25;5014807;28;20040;-65
2023/06/15 03:22:36;;;;;;;3.38;3.08;;;;;;;14.30;71.76;101301.53;5034340;28;20114;-66
2023/06/15 03:25:03;;;;;;;3.88;3.40;;;;;;;14.29;71.61;101305.88;5027266;28;20041;-65
2023/06/15 03:27:29;;;;;;;5.80;3.22;;;;;;;14.30;71.32;101298.94;5041361;28;20037;-65
2023/06/15 03:29:56;;;;;;;6.88;4.03;;;;;;;14.32;71.12;101305.84;5031751;28;20037;-65
2023/06/15 03:32:22;;;;;;;4.72;3.60;;;;;;;14.33;71.29;101306.69;5033347;28;20060;-65
2023/06/15 03:34:47;;;;;;;3.75;3.40;;;;;;;14.32;70.78;101307.56;5036724;28;20040;-66
2023/06/15 03:37:13;;;;;;;5.38;4.00;;;;;;;14.35;71.21;101316.19;5038320;28;20771;-65
2023/06/15 03:39:38;;;;;;;10.80;4.05;;;;;;;14.41;70.93;101312.66;5037234;28;20033;-65
2023/06/15 03:42:04;;;;;;;4.38;3.47;;;;;;;14.45;71.29;101323.03;5035852;28;20045;-66
2023/06/15 03:44:29;;;;;;;5.32;3.95;;;;;;;14.44;71.44;101323.91;5032550;28;20056;-65
2023/06/15 03:46:54;;;;;;;4.38;3.58;;;;;;;14.43;71.96;101326.50;5036139;28;20044;-65
2023/06/15 03:49:20;;;;;;;8.20;4.30;;;;;;;14.38;72.27;101329.19;5032490;28;20061;-65
2023/06/15 03:51:45;;;;;;;6.47;4.57;;;;;;;14.35;71.91;101326.59;5016170;28;20045;-66
2023/06/15 03:54:11;;;;;;;6.03;3.92;;;;;;;14.31;71.99;101317.09;5036515;28;20521;-65
2023/06/15 03:56:36;;;;;;;5.07;4.13;;;;;;;14.35;71.90;101325.72;5033226;28;20498;-65
2023/06/15 03:59:02;;;;;;;5.47;3.90;;;;;;;14.37;72.18;101335.22;5033425;28;20044;-66
2023/06/15 04:01:27;;;;;;;5.40;3.95;;;;;;;14.41;71.94;101329.13;5016945;28;20195;-65
2023/06/15 04:03:53;;;;;;;3.50;3.20;;;;;;;14.47;71.99;101328.19;5032007;28;20069;-65
2023/06/15 04:06:21;;;;;;;5.45;3.92;;;;;;;14.52;71.53;101324.63;5036215;28;20123;-65
2023/06/15 04:08:46;;;;;;;4.53;4.13;;;;;;;14.56;71.37;101328.03;5036529;28;20033;-65
2023/06/15 04:11:12;;;;;;;4.68;3.97;;;;;;;14.56;71.45;101335.84;5035418;28;20044;-65
2023/06/15 04:13:37;;;;;;;5.57;3.72;;;;;;;14.55;71.39;101334.13;5036885;28;20047;-65
2023/06/15 04:16:03;;;;;;;5.00;4.05;;;;;;;14.54;71.49;101333.25;5039221;28;20068;-65
2023/06/15 04:18:28;;;;;;;6.15;4.05;;;;;;;14.55;72.05;101339.31;5039286;28;20037;-65
2023/06/15 04:20:54;;;;;;;4.13;3.67;;;;;;;14.62;72.04;101339.22;5034521;28;20029;-65
2023/06/15 04:23:20;;;;;;;9.07;4.65;;;;;;;14.68;72.01;101335.66;5034504;28;20128;-65
2023/06/15 04:25:45;;;;;;;9.02;4.20;;;;;;;14.75;72.00;101337.25;5036230;28;20152;-65
2023/06/15 04:28:11;;;;;;;5.03;4.22;;;;;;;14.81;71.70;101337.16;5035203;28;20038;-65
2023/06/15 04:30:40;;;;;;;7.97;4.47;;;;;;;14.84;71.88;101344.91;5034740;28;20041;-65
2023/06/15 04:33:12;;;;;;;6.13;4.65;;;;;;;14.89;71.85;101350.06;5040000;28;20041;-66
2023/06/15 04:35:40;;;;;;;5.05;3.90;;;;;;;14.95;71.63;101337.81;5041926;28;20040;-65
2023/06/15 04:38:05;;;;;;;7.75;4.10;;;;;;;15.03;71.37;101341.13;5043076;28;20033;-65
2023/06/15 04:40:31;;;;;;;5.85;4.07;;;;;;;15.14;71.33;101333.13;5040636;28;20047;-65
2023/06/15 04:43:02;;;;;;;6.40;4.28;;;;;;;15.23;71.26;101334.72;5041314;28;20040;-64
2023/06/15 04:45:28;;;;;;;5.43;4.47;;;;;;;15.31;70.89;101335.44;5038979;28;20025;-64
2023/06/15 04:47:54;;;;;;;8.10;4.90;;;;;;;15.40;70.90;101341.34;5038377;28;20024;-65
2023/06/15 04:50:21;;;;;;;8.75;4.18;;;;;;;15.49;70.97;101342.91;5036638;28;20636;-64
2023/06/15 04:52:47;;;;;;;4.78;4.28;;;;;;;15.60;70.79;101343.53;5042951;28;20123;-65
2023/06/15 04:55:12;;;;;;;6.78;4.65;;;;;;;15.66;70.28;101323.47;5041568;28;20038;-64
2023/06/15 04:57:38;;;;;;;6.55;4.22;;;;;;;15.71;69.82;101336.38;5040280;28;20521;-64
2023/06/15 05:00:08;;;;;;;5.88;3.97;;;;;;;15.78;69.88;101332.78;5049242;28;20143;-64
2023/06/15 05:02:33;;;;;;;8.65;4.70;;;;;;;15.87;69.71;101327.38;5044397;28;20091;-64
2023/06/15 05:04:58;;;;;;;7.25;4.85;;;;;;;15.94;69.35;101335.94;5042442;28;20045;-64
2023/06/15 05:07:24;;;;;;;5.60;4.43;;;;;;;16.00;69.10;101330.59;5040289;28;20049;-64
2023/06/15 05:09:49;;;;;;;6.65;4.03;;;;;;;16.10;68.61;101319.03;5039817;28;20033;-63
2023/06/15 05:12:14;;;;;;;6.18;3.35;;;;;;;16.22;66.56;101301.38;5036932;28;20040;-64
2023/06/15 05:14:40;;;;;;;6.05;3.63;;;;;;;16.38;65.69;101293.19;5037557;28;20036;-63
2023/06/15 05:17:05;;;;;;;5.85;3.88;;;;;;;16.51;65.46;101297.22;5037654;28;20180;-63
2023/06/15 05:19:31;;;;;;;6.90;4.10;;;;;;;16.56;65.75;101301.41;5038039;28;20899;-63
2023/06/15 05:22:02;;;;;;;3.75;3.13;;;;;;;16.68;65.64;101308.94;5034685;28;20996;-64
2023/06/15 05:24:28;;;;;;;5.50;3.80;;;;;;;16.76;65.65;101319.22;5028853;28;20037;-63
2023/06/15 05:26:53;;;;;;;8.07;3.78;;;;;;;16.81;65.45;101318.25;5025152;28;20041;-63
2023/06/15 05:29:20;;;;;;;7.38;4.35;;;;;;;16.88;65.34;101316.34;5023671;28;20037;-62
2023/06/15 05:31:46;;;;;;;8.70;3.70;;;;;;;16.98;65.26;101309.13;5031056;28;20181;-63
2023/06/15 05:34:11;;;;;;;5.75;4.13;;;;;;;17.06;64.46;101305.41;5030031;28;20041;-65
2023/06/15 05:36:36;;;;;;;9.43;3.92;;;;;;;17.10;64.05;101295.72;5029657;28;20135;-62
2023/06/15 05:39:02;;;;;;;8.35;4.18;;;;;;;17.17;63.93;101303.38;5040763;28;20185;-63
2023/06/15 05:41:28;;;;;;;9.07;3.60;;;;;;;17.29;63.70;101304.78;5038933;28;20044;-63
2023/06/15 05:43:53;;;;;;;6.72;3.17;;;;;;;17.41;62.19;101283.56;5039189;28;20143;-63
2023/06/15 05:46:18;;;;;;;9.45;4.30;;;;;;;17.52;61.70;101278.00;5037405;28;20037;-63
2023/06/15 05:48:44;;;;;;;7.25;3.25;;;;;;;17.61;61.15;101278.59;5039088;28;20551;-63
2023/06/15 05:51:10;;;;;;;5.68;3.75;;;;;;;17.65;60.72;101274.16;5040554;28;20036;-62
2023/06/15 05:53:35;;;;;;;5.13;3.15;;;;;;;17.68;60.65;101279.28;5035118;28;20053;-62
2023/06/15 05:56:03;;;;;;;7.82;3.75;;;;;;;17.73;61.16;101290.47;5030864;28;20106;-63
2023/06/15 05:58:28;;;;;;;7.65;3.88;;;;;;;17.78;60.56;101281.56;5034313;28;20037;-63
2023/06/15 06:00:53;;;;;;;7.72;3.78;;;;;;;17.84;60.18;101277.94;5034099;28;20037;-62
2023/06/15 06:03:19;;;;;;;4.70;3.40;;;;;;;17.94;60.56;101287.25;5033274;28;20084;-63
2023/06/15 06:05:45;;;;;;;5.57;3.47;;;;;;;17.97;60.77;101290.63;5036724;28;20029;-63
2023/06/15 06:08:10;;;;;;;5.47;3.90;;;;;;;18.06;60.51;101293.84;5037251;28;20029;-63
2023/06/15 06:10:35;;;;;;;5.55;3.60;;;;;;;18.11;59.86;101282.34;5036149;28;20041;-62
2023/06/15 06:13:01;;;;;;;8.13;3.95;;;;;;;18.12;59.84;101280.59;5034868;28;20045;-62
2023/06/15 06:15:27;;;;;;;7.50;3.90;;;;;;;18.17;59.78;101295.22;5016666;28;20056;-62
2023/06/15 06:17:52;;;;;;;7.60;4.15;;;;;;;18.29;60.02;101289.63;5039370;28;20032;-63
2023/06/15 06:20:17;;;;;;;9.95;4.07;;;;;;;18.35;58.92;101278.94;5033389;28;20110;-63
2023/06/15 06:22:43;;;;;;;5.60;3.40;;;;;;;18.46;58.28;101271.59;5034273;28;20048;-65
2023/06/15 06:25:08;;;;;;;5.03;3.50;;;;;;;18.57;58.64;101286.13;5035883;28;20054;-66
2023/06/15 06:27:35;;;;;;;5.53;3.45;;;;;;;18.67;58.56;101279.69;5042279;28;20047;-66
2023/06/15 06:30:01;;;;;;;10.00;3.58;;;;;;;18.78;58.09;101273.16;5034070;28;20094;-65
2023/06/15 06:32:26;;;;;;;7.60;3.85;;;;;;;18.84;57.38;101264.25;5032621;28;20029;-65
2023/06/15 06:34:52;;;;;;;6.13;3.53;;;;;;;18.84;57.44;101269.47;5042374;28;20037;-65
2023/06/15 06:37:17;;;;;;;11.32;4.07;;;;;;;18.93;57.14;101275.31;5039863;28;20048;-65
2023/06/15 06:39:42;;;;;;;6.78;3.75;;;;;;;18.93;56.79;101267.44;5038404;28;20818;-65
2023/06/15 06:42:08;;;;;;;5.35;4.00;;;;;;;18.85;56.47;101266.81;5038203;28;20126;-67
2023/06/15 06:44:33;;;;;;;6.57;3.47;;;;;;;18.90;57.37;101277.16;5035326;28;20064;-65
2023/06/15 06:47:01;;;;;;;12.55;4.25;;;;;;;18.98;56.58;101265.50;5029726;28;20029;-66
2023/06/15 06:49:26;;;;;;;5.90;3.50;;;;;;;19.15;56.98;101278.00;5036738;28;20514;-66
2023/06/15 06:51:52;;;;;;;6.25;3.80;;;;;;;19.28;56.74;101268.81;5033301;28;20051;-65
2023/06/15 06:54:17;;;;;;;6.82;3.42;;;;;;;19.37;56.33;101270.22;5034082;28;20024;-65
2023/06/15 06:56:43;;;;;;;8.55;4.03;;;;;;;19.35;55.56;101256.34;5015852;28;20044;-66
2023/06/15 06:59:08;;;;;;;8.15;3.83;;;;;;;19.44;56.23;101271.72;5034887;28;20045;-66
2023/06/15 07:01:34;;;;;;;6.18;3.78;;;;;;;19.55;55.38;101262.56;5016811;28;20078;-66
2023/06/15 07:03:59;;;;;;;6.18;3.75;;;;;;;19.60;54.87;101259.75;5031852;28;20037;-65
2023/06/15 07:06:25;;;;;;;7.15;3.67;;;;;;;19.64;55.21;101271.84;5016536;28;20032;-66
2023/06/15 07:08:50;;;;;;;6.95;3.72;;;;;;;19.78;55.08;101266.91;5035935;28;20083;-65
2023/06/15 07:11:15;;;;;;;7.07;3.45;;;;;;;19.84;54.46;101255.38;5032907;28;20037;-65
2023/06/15 07:13:41;;;;;;;9.02;3.65;;;;;;;19.96;54.27;101268.00;5033369;28;20041;-63
2023/06/15 07:16:06;;;;;;;6.25;3.65;;;;;;;20.07;54.41;101261.44;5031298;28;20119;-63
2023/06/15 07:18:32;;;;;;;5.00;3.20;;;;;;;20.12;54.20;101256.88;5030813;28;20033;-63
2023/06/15 07:20:57;;;;;;;4.88;3.35;;;;;;;20.17;53.79;101252.28;5032480;28;20040;-64
2023/06/15 07:23:24;;;;;;;7.65;3.55;;;;;;;20.21;52.94;101253.03;5031613;28;20048;-64
2023/06/15 07:25:55;;;;;;;6.15;3.40;;;;;;;20.23;53.32;101256.44;5034957;28;20044;-63
2023/06/15 07:28:20;;;;;;;8.98;3.90;;;;;;;20.42;54.03;101273.13;5033742;28;20121;-63
2023/06/15 07:30:49;;;;;;;6.60;3.80;;;;;;;20.62;54.08;101274.94;5026614;28;20858;-63
2023/06/15 07:33:16;;;;;;;5.55;3.72;;;;;;;20.71;52.09;101243.06;5030338;28;20036;-63
2023/06/15 07:35:41;;;;;;;7.60;3.63;;;;;;;20.77;51.38;101234.94;5036642;28;20024;-63
2023/06/15 07:38:07;;;;;;;5.70;3.22;;;;;;;20.80;51.66;101250.56;5034544;28;20037;-62
2023/06/15 07:40:32;;;;;;;6.63;3.47;;;;;;;20.89;51.68;101244.91;5034898;28;20061;-63
2023/06/15 07:42:58;;;;;;;6.63;3.60;;;;;;;20.87;51.07;101238.84;5033671;28;20041;-63
2023/06/15 07:45:23;;;;;;;4.55;3.20;;;;;;;20.95;51.72;101247.28;5034642;28;20457;-63
2023/06/15 07:47:48;;;;;;;5.53;3.53;;;;;;;21.12;51.86;101255.28;5036098;28;20040;-63
2023/06/15 07:50:14;;;;;;;6.53;3.50;;;;;;;21.23;50.20;101229.34;5035957;28;20048;-63
2023/06/15 07:52:39;;;;;;;4.78;3.22;;;;;;;21.34;50.47;101233.28;5034145;28;20040;-63
2023/06/15 07:55:06;;;;;;;6.80;3.83;;;;;;;21.46;50.13;101227.47;5036882;28;20624;-63
2023/06/15 07:57:31;;;;;;;5.45;3.40;;;;;;;21.49;50.57;101233.41;5033932;28;20044;-63
2023/06/15 08:00:04;;;;;;;7.32;3.58;;;;;;;21.64;49.04;101210.88;5036927;28;20041;-62
2023/06/15 08:02:30;;;;;;;5.60;3.58;;;;;;;21.71;49.25;101220.16;5040423;28;20033;-64
2023/06/15 08:04:55;;;;;;;6.35;3.72;;;;;;;21.88;48.88;101216.75;5037897;28;20072;-62
2023/06/15 08:07:20;;;;;;;6.55;3.80;;;;;;;21.93;48.76;101212.97;5038194;28;20099;-63
2023/06/15 08:09:46;;;;;;;8.23;3.53;;;;;;;22.05;49.49;101225.53;5038543;28;20068;-63
2023/06/15 08:12:11;;;;;;;6.45;3.28;;;;;;;22.04;48.42;101210.66;5039218;28;20071;-63
2023/06/15 08:14:37;;;;;;;9.60;3.35;;;;;;;22.19;48.59;101216.97;5020075;28;20037;-63
2023/06/15 08:17:02;;;;;;;14.32;3.42;;;;;;;22.31;47.85;101205.81;5037199;28;20111;-62
2023/06/15 08:19:28;;;;;;;9.50;3.45;;;;;;;22.39;46.41;101184.38;5036117;28;20033;-62
2023/06/15 08:21:53;;;;;;;6.75;3.20;;;;;;;22.26;46.80;101189.41;5037144;28;20041;-63
2023/06/15 08:24:18;;;;;;;7.07;3.90;;;;;;;22.35;47.07;101200.31;5036998;28;20032;-63
2023/06/15 08:26:44;;;;;;;6.63;3.60;;;;;;;22.48;47.28;101205.00;5038659;28;20121;-64
2023/06/15 08:29:10;;;;;;;7.00;2.92;;;;;;;22.67;47.70;101213.69;5033349;28;20049;-64
2023/06/15 08:31:36;;;;;;;5.88;3.30;;;;;;;22.71;46.78;101197.63;5036110;28;20049;-64
2023/06/15 08:34:01;;;;;;;4.45;3.20;;;;;;;22.75;45.80;101183.38;5035614;28;20701;-64
2023/06/15 08:36:28;;;;;;;7.68;3.30;;;;;;;22.75;45.51;101193.06;5037423;28;20029;-64
2023/06/15 08:38:53;;;;;;;4.22;3.20;;;;;;;22.81;46.00;101192.75;5036466;28;20067;-65
2023/06/15 08:41:19;;;;;;;6.10;3.20;;;;;;;22.89;45.73;101185.28;5039346;28;20032;-65
2023/06/15 08:43:47;;;;;;;5.07;2.80;;;;;;;23.00;45.63;101187.34;5031197;28;20131;-65
2023/06/15 08:46:12;;;;;;;7.45;2.92;;;;;;;23.09;45.73;101189.50;5033068;28;20042;-65
2023/06/15 08:48:39;;;;;;;7.18;2.83;;;;;;;23.19;45.84;101194.22;5032383;28;20043;-65
2023/06/15 08:51:08;;;;;;;8.45;3.30;;;;;;;23.25;45.48;101187.78;5038236;28;20043;-65
2023/06/15 08:53:35;;;;;;;7.47;2.95;;;;;;;23.36;43.59;101162.50;5036849;28;20041;-65
2023/06/15 08:56:02;;;;;;;5.22;3.03;;;;;;;23.53;42.77;101166.00;5022415;28;20133;-65
2023/06/15 08:58:27;;;;;;;4.35;2.95;;;;;;;23.66;43.12;101172.31;5034659;28;20037;-65
2023/06/15 09:00:53;;;;;;;5.68;3.30;;;;;;;23.77;41.64;101164.66;5033595;28;20403;-65
2023/06/15 09:03:19;;;;;;;6.47;3.53;;;;;;;23.84;40.30;101150.13;5040853;28;20028;-65
2023/06/15 09:05:44;;;;;;;6.88;3.13;;;;;;;23.94;40.19;101159.25;5036928;28;20536;-64
2023/06/15 09:08:10;;;;;;;7.90;3.40;;;;;;;23.98;39.86;101160.81;5038552;28;20033;-64
2023/06/15 09:10:37;;;;;;;5.47;3.30;;;;;;;23.94;39.76;101159.25;5034620;28;20025;-64
2023/06/15 09:13:03;;;;;;;6.20;3.35;;;;;;;23.95;40.12;101167.13;5038361;28;20118;-65
2023/06/15 09:15:30;;;;;;;7.50;3.70;;;;;;;23.91;40.25;101167.34;5033743;28;20044;-64
2023/06/15 09:18:02;;;;;;;6.88;3.10;;;;;;;23.97;40.00;101165.25;5036711;28;20667;-65
2023/06/15 09:20:30;;;;;;;8.57;3.60;;;;;;;23.99;39.93;101171.28;5024045;28;20084;-64
2023/06/15 09:23:01;;;;;;;7.95;3.50;;;;;;;24.04;39.31;101147.25;5031649;28;20785;-65
2023/06/15 09:25:26;;;;;;;4.80;3.20;;;;;;;24.12;40.21;101165.28;5034670;28;20092;-64
2023/06/15 09:27:55;;;;;;;6.55;3.20;;;;;;;24.20;40.06;101168.31;5036988;28;20860;-66
2023/06/15 09:30:28;;;;;;;9.43;3.70;;;;;;;24.24;38.68;101156.66;5036101;28;20043;-64
2023/06/15 09:32:54;;;;;;;6.47;3.00;;;;;;;24.27;38.95;101153.84;5040924;28;20048;-65
2023/06/15 09:35:19;;;;;;;4.40;2.97;;;;;;;24.29;37.67;101151.94;5041668;28;20517;-64
2023/06/15 09:37:44;;;;;;;5.65;3.05;;;;;;;24.30;38.26;101153.66;5038774;28;20064;-63
2023/06/15 09:40:11;;;;;;;5.80;2.97;;;;;;;24.47;38.89;101156.13;5038096;28;20044;-63
2023/06/15 09:42:39;;;;;;;4.53;3.15;;;;;;;24.84;39.94;101173.31;5040046;28;20045;-63
2023/06/15 09:45:06;;;;;;;7.55;3.08;;;;;;;25.24;38.77;101153.16;5034317;28;20037;-63
2023/06/15 09:47:32;;;;;;;6.53;2.83;;;;;;;25.41;36.42;101132.66;5036789;28;20551;-63
2023/06/15 09:50:07;;;;;;;5.18;3.42;;;;;;;25.64;35.42;101117.97;5033845;28;20136;-65
2023/06/15 09:52:36;;;;;;;6.75;3.03;;;;;;;25.53;35.16;101131.06;5036081;28;20124;-63
2023/06/15 09:55:03;;;;;;;6.00;3.10;;;;;;;25.32;35.31;101137.69;5031671;28;20096;-63
2023/06/15 09:57:29;;;;;;;4.95;3.53;;;;;;;25.09;37.38;101165.56;5032079;28;20112;-63
2023/06/15 09:59:55;;;;;;;6.75;3.03;;;;;;;25.28;37.08;101174.06;5035143;28;20053;-63
2023/06/15 10:02:22;;;;;;;10.32;3.22;;;;;;;25.38;35.29;101145.22;5035901;28;20129;-63
2023/06/15 10:04:47;;;;;;;5.18;3.55;;;;;;;25.66;35.33;101139.88;5033736;28;20497;-63
2023/06/15 10:07:17;;;;;;;9.40;3.60;;;;;;;25.78;35.28;101149.69;5034391;28;20103;-63
2023/06/15 10:09:46;;;;;;;4.35;2.72;;;;;;;26.02;34.28;101141.91;5019604;28;20063;-63
2023/06/15 10:12:15;;;;;;;4.30;3.10;;;;;;;26.24;34.42;101144.88;5036794;28;20108;-63
2023/06/15 10:14:49;;;;;;;8.80;2.83;;;;;;;26.18;33.82;101138.16;5037318;28;20032;-63
2023/06/15 10:17:17;;;;;;;6.90;3.63;;;;;;;26.20;33.05;101132.78;5036068;28;20037;-63
2023/06/15 10:19:43;;;;;;;7.60;3.20;;;;;;;26.23;33.09;101131.72;5031934;28;20822;-62
2023/06/15 10:22:16;;;;;;;6.45;3.45;;;;;;;26.20;33.25;101145.16;5034979;28;20040;-63
2023/06/15 10:24:43;;;;;;;4.55;2.70;;;;;;;26.77;33.14;101141.19;5037085;28;20125;-64
2023/06/15 10:27:09;;;;;;;4.80;3.20;;;;;;;26.97;30.75;101130.06;5038039;28;20032;-63
2023/06/15 10:29:51;;;;;;;6.32;3.38;;;;;;;27.06;30.42;101125.91;5033949;28;20029;-63
2023/06/15 10:32:26;;;;;;;9.52;3.40;;;;;;;26.92;30.36;101128.69;5031282;28;20611;-63
2023/06/15 10:34:58;;;;;;;9.98;2.88;;;;;;;27.19;30.73;101142.66;5037189;28;20047;-64
2023/06/15 10:37:51;;;;;;;6.43;3.30;;;;;;;27.28;32.07;101155.28;5035246;28;20033;-63
2023/06/15 10:40:31;;;;;;;6.38;3.33;;;;;;;26.96;30.91;101148.72;5033184;28;20067;-63
2023/06/15 10:43:04;;;;;;;7.93;2.78;;;;;;;26.46;31.47;101153.06;5035907;28;20587;-63
2023/06/15 10:45:32;;;;;;;4.78;3.10;;;;;;;26.61;32.24;101159.97;5031065;28;20060;-64
2023/06/15 10:47:59;;;;;;;8.07;3.10;;;;;;;26.64;30.98;101149.16;5035041;28;20123;-63
2023/06/15 10:50:26;;;;;;;8.82;3.10;;;;;;;26.55;30.63;101144.47;5034685;28;20044;-63
2023/06/15 10:52:51;;;;;;;8.68;3.45;;;;;;;26.81;30.91;101145.34;5029193;28;20029;-63
2023/06/15 10:55:22;;;;;;;4.32;2.85;;;;;;;26.89;29.98;101129.75;5033560;28;20043;-64
2023/06/15 10:57:48;;;;;;;11.77;3.63;;;;;;;27.01;29.27;101120.09;5013459;28;20065;-63
2023/06/15 11:00:23;;;;;;;8.73;3.33;;;;;;;27.15;30.00;101128.75;5032967;28;20175;-64
2023/06/15 11:02:54;;;;;;;3.83;2.90;;;;;;;27.31;29.63;101125.00;5032822;28;20037;-63
2023/06/15 11:05:21;;;;;;;6.95;2.97;;;;;;;27.37;29.29;101124.56;5036278;28;20041;-63
2023/06/15 11:07:51;;;;;;;10.55;2.92;;;;;;;27.39;28.55;101110.22;5037411;28;20399;-63
2023/06/15 11:10:28;;;;;;;5.45;3.20;;;;;;;27.68;29.72;101121.38;5036572;28;20040;-64
2023/06/15 11:13:02;;;;;;;7.95;3.42;;;;;;;28.01;28.38;101118.03;5032565;28;20407;-63
2023/06/15 11:15:33;;;;;;;6.25;3.13;;;;;;;27.94;27.29;101112.31;5029515;28;20036;-63
2023/06/15 11:18:03;;;;;;;9.00;2.90;;;;;;;27.94;27.88;101119.44;5035432;28;20056;-63
2023/06/15 11:20:38;;;;;;;4.97;3.03;;;;;;;28.19;28.13;101125.50;5034000;28;20095;-64
2023/06/15 11:23:19;;;;;;;7.60;3.05;;;;;;;28.37;28.48;101117.91;5034642;28;20514;-63